createdAt,value
2018-05-13T00:01:14.641Z,12.70
2018-05-13T00:03:42.914Z,12.60
2018-05-13T00:06:11.200Z,12.60
2018-05-13T00:08:39.468Z,12.50
2018-05-13T00:11:07.753Z,12.50
2018-05-13T00:13:36.017Z,12.40
2018-05-13T00:16:04.300Z,12.40
2018-05-13T00:18:32.569Z,12.40
2018-05-13T00:21:00.853Z,12.50
2018-05-13T00:23:29.140Z,12.50
2018-05-13T00:25:56.658Z,12.50
2018-05-13T00:28:24.184Z,12.50
2018-05-13T00:30:51.701Z,12.50
2018-05-13T00:33:19.995Z,12.40
2018-05-13T00:35:47.520Z,12.40
2018-05-13T00:38:15.789Z,12.30
2018-05-13T00:40:43.309Z,12.30
2018-05-13T00:43:10.810Z,12.30
2018-05-13T00:45:38.329Z,12.30
2018-05-13T00:48:05.879Z,12.10
2018-05-13T00:50:33.423Z,12.10
2018-05-13T00:53:00.922Z,12.00
2018-05-13T00:55:28.442Z,12.00
2018-05-13T00:57:55.940Z,12.00
2018-05-13T01:00:23.452Z,11.90
2018-05-13T01:02:50.963Z,11.90
2018-05-13T01:05:18.479Z,11.90
2018-05-13T01:07:45.992Z,11.90
2018-05-13T01:10:13.512Z,12.00
2018-05-13T01:12:41.042Z,12.00
2018-05-13T01:15:08.605Z,12.00
2018-05-13T01:17:36.115Z,12.00
2018-05-13T01:20:03.628Z,12.00
2018-05-13T01:22:31.156Z,12.00
2018-05-13T01:24:59.420Z,12.00
2018-05-13T01:27:27.008Z,11.90
2018-05-13T01:29:54.509Z,11.90
2018-05-13T01:32:22.025Z,11.90
2018-05-13T01:34:49.590Z,11.80
2018-05-13T01:37:17.128Z,11.70
2018-05-13T01:39:45.400Z,11.70
2018-05-13T01:42:13.686Z,11.60
2018-05-13T01:44:41.981Z,11.60
2018-05-13T01:47:09.505Z,11.60
2018-05-13T01:49:37.838Z,11.60
2018-05-13T01:52:05.357Z,11.60
2018-05-13T01:54:32.873Z,11.70
2018-05-13T01:57:00.397Z,11.60
2018-05-13T01:59:27.929Z,11.60
2018-05-13T02:01:56.209Z,11.60
2018-05-13T02:04:24.480Z,11.50
2018-05-13T02:06:52.765Z,11.50
2018-05-13T02:09:20.276Z,11.50
2018-05-13T02:11:47.790Z,11.50
2018-05-13T02:14:15.294Z,11.50
2018-05-13T02:16:42.833Z,11.40
2018-05-13T02:19:10.338Z,11.40
2018-05-13T02:21:38.626Z,11.30
2018-05-13T02:24:06.901Z,11.30
2018-05-13T02:26:35.184Z,11.40
2018-05-13T02:29:02.693Z,11.40
2018-05-13T02:31:30.213Z,11.40
2018-05-13T02:33:57.721Z,11.40
2018-05-13T02:36:25.320Z,11.50
2018-05-13T02:38:52.820Z,11.40
2018-05-13T02:41:20.365Z,11.40
2018-05-13T02:43:47.875Z,11.30
2018-05-13T02:46:16.162Z,11.30
2018-05-13T02:48:44.433Z,11.20
2018-05-13T02:51:12.740Z,11.10
2018-05-13T02:53:40.245Z,11.10
2018-05-13T02:56:08.524Z,10.80
2018-05-13T02:58:36.071Z,10.80
2018-05-13T03:01:03.597Z,10.70
2018-05-13T03:03:31.105Z,10.60
2018-05-13T03:05:58.624Z,10.60
2018-05-13T03:08:26.172Z,10.60
2018-05-13T03:10:53.708Z,10.40
2018-05-13T03:13:21.270Z,10.40
2018-05-13T03:15:48.837Z,10.40
2018-05-13T03:18:16.357Z,10.40
2018-05-13T03:20:43.958Z,10.30
2018-05-13T03:23:11.479Z,10.20
2018-05-13T03:25:39.748Z,10.30
2018-05-13T03:28:07.268Z,10.20
2018-05-13T03:30:34.765Z,10.30
2018-05-13T03:33:02.361Z,10.30
2018-05-13T03:35:29.872Z,10.30
2018-05-13T03:37:57.388Z,10.30
2018-05-13T03:40:24.932Z,10.30
2018-05-13T03:42:52.455Z,10.40
2018-05-13T03:45:19.956Z,10.40
2018-05-13T03:47:47.513Z,10.40
2018-05-13T03:50:15.017Z,10.40
2018-05-13T03:52:42.531Z,10.40
2018-05-13T03:55:10.051Z,10.40
2018-05-13T03:57:37.646Z,10.50
2018-05-13T04:00:05.149Z,10.60
2018-05-13T04:02:32.661Z,10.80
2018-05-13T04:05:00.167Z,10.90
2018-05-13T04:07:27.703Z,10.90
2018-05-13T04:10:07.112Z,10.90
2018-05-13T04:12:46.920Z,10.90
2018-05-13T04:15:23.692Z,10.90
2018-05-13T04:17:51.209Z,10.90
2018-05-13T04:20:18.709Z,10.90
2018-05-13T04:22:46.993Z,11.10
2018-05-13T04:25:14.588Z,11.00
2018-05-13T04:27:42.144Z,11.10
2018-05-13T04:30:09.641Z,11.00
2018-05-13T04:32:37.156Z,11.00
2018-05-13T04:35:04.816Z,11.00
2018-05-13T04:37:33.093Z,11.00
2018-05-13T04:40:00.657Z,11.00
2018-05-13T04:42:28.171Z,11.10
2018-05-13T04:44:57.203Z,11.30
2018-05-13T04:47:25.479Z,11.30
2018-05-13T04:49:53.736Z,11.50
2018-05-13T04:52:22.025Z,11.60
2018-05-13T04:54:50.296Z,11.70
2018-05-13T04:57:18.557Z,11.80
2018-05-13T04:59:46.079Z,11.80
2018-05-13T05:02:13.584Z,11.90
2018-05-13T05:04:41.860Z,12.20
2018-05-13T05:07:10.161Z,12.30
2018-05-13T05:09:37.680Z,12.30
2018-05-13T05:12:05.180Z,12.30
2018-05-13T05:14:32.698Z,12.30
2018-05-13T05:17:00.973Z,12.30
2018-05-13T05:19:28.488Z,12.30
2018-05-13T05:21:56.047Z,12.40
2018-05-13T05:24:24.283Z,12.90
2018-05-13T05:26:52.569Z,13.00
2018-05-13T05:29:20.110Z,12.90
2018-05-13T05:31:48.378Z,13.00
2018-05-13T05:34:15.898Z,12.90
2018-05-13T05:36:43.401Z,13.00
2018-05-13T05:39:11.685Z,13.20
2018-05-13T05:41:39.957Z,13.30
2018-05-13T05:44:08.245Z,13.20
2018-05-13T05:46:36.504Z,13.30
2018-05-13T05:49:04.031Z,13.30
2018-05-13T05:51:31.530Z,13.40
2018-05-13T05:53:59.816Z,13.50
2018-05-13T05:56:28.085Z,13.60
2018-05-13T05:58:56.370Z,13.70
2018-05-13T06:01:23.889Z,13.70
2018-05-13T06:03:51.405Z,13.70
2018-05-13T06:06:18.905Z,13.90
2018-05-13T06:08:46.421Z,14.20
2018-05-13T06:11:13.920Z,14.50
2018-05-13T06:13:41.437Z,14.70
2018-05-13T06:16:08.941Z,15.00
2018-05-13T06:18:36.465Z,15.30
2018-05-13T06:21:03.969Z,15.60
2018-05-13T06:23:31.485Z,15.60
2018-05-13T06:25:58.981Z,15.90
2018-05-13T06:28:26.499Z,16.40
2018-05-13T06:30:53.995Z,16.90
2018-05-13T06:33:21.513Z,16.80
2018-05-13T06:35:49.008Z,17.10
2018-05-13T06:38:16.525Z,17.20
2018-05-13T06:40:44.035Z,17.30
2018-05-13T06:43:12.317Z,17.20
2018-05-13T06:45:40.585Z,17.50
2018-05-13T06:48:08.124Z,17.50
2018-05-13T06:50:35.620Z,18.10
2018-05-13T06:53:03.136Z,18.20
2018-05-13T06:55:30.679Z,18.20
2018-05-13T06:57:58.184Z,18.50
2018-05-13T07:00:26.465Z,19.00
2018-05-13T07:02:54.795Z,18.90
2018-05-13T07:05:23.035Z,19.00
2018-05-13T07:07:50.657Z,19.00
2018-05-13T07:10:18.122Z,19.10
2018-05-13T07:12:45.629Z,19.30
2018-05-13T07:15:13.160Z,19.30
2018-05-13T07:17:41.420Z,18.80
2018-05-13T07:20:09.704Z,18.90
2018-05-13T07:22:37.972Z,19.10
2018-05-13T07:25:06.266Z,19.20
2018-05-13T07:27:33.846Z,19.20
2018-05-13T07:30:01.357Z,19.40
2018-05-13T07:32:28.862Z,19.50
2018-05-13T07:34:56.372Z,19.80
2018-05-13T07:37:23.877Z,20.00
2018-05-13T07:39:51.481Z,20.10
2018-05-13T07:42:19.760Z,20.30
2018-05-13T07:44:48.092Z,20.00
2018-05-13T07:47:15.589Z,20.00
2018-05-13T07:49:43.100Z,20.00
2018-05-13T07:52:10.648Z,20.00
2018-05-13T07:54:38.165Z,20.10
2018-05-13T07:57:05.668Z,20.50
2018-05-13T07:59:33.180Z,20.80
2018-05-13T08:02:00.684Z,20.60
2018-05-13T08:04:28.208Z,20.60
2018-05-13T08:06:55.713Z,20.50
2018-05-13T08:09:23.237Z,20.60
2018-05-13T08:11:51.500Z,20.80
2018-05-13T08:14:19.012Z,20.80
2018-05-13T08:16:46.513Z,21.10
2018-05-13T08:19:14.041Z,21.30
2018-05-13T08:21:41.536Z,21.40
2018-05-13T08:24:09.050Z,21.50
2018-05-13T08:26:36.673Z,21.60
2018-05-13T08:29:04.144Z,21.60
2018-05-13T08:31:31.644Z,21.40
2018-05-13T08:33:59.240Z,21.50
2018-05-13T08:36:27.508Z,21.60
2018-05-13T08:38:55.024Z,21.60
2018-05-13T08:41:22.520Z,21.60
2018-05-13T08:43:50.045Z,22.00
2018-05-13T08:46:17.549Z,22.00
2018-05-13T08:48:45.840Z,22.20
2018-05-13T08:51:13.418Z,22.20
2018-05-13T08:53:40.912Z,22.40
2018-05-13T08:56:08.424Z,22.20
2018-05-13T08:58:35.979Z,22.30
2018-05-13T09:01:03.493Z,22.40
2018-05-13T09:03:30.985Z,22.50
2018-05-13T09:05:59.273Z,22.50
2018-05-13T09:08:26.860Z,22.60
2018-05-13T09:10:55.080Z,22.70
2018-05-13T09:13:23.384Z,22.80
2018-05-13T09:15:50.901Z,22.80
2018-05-13T09:18:18.408Z,22.60
2018-05-13T09:20:45.967Z,22.70
2018-05-13T09:23:14.196Z,23.20
2018-05-13T09:25:41.800Z,23.10
2018-05-13T09:28:09.298Z,22.60
2018-05-13T09:30:36.820Z,22.50
2018-05-13T09:33:04.339Z,22.70
2018-05-13T09:35:31.851Z,22.90
2018-05-13T09:37:59.380Z,22.60
2018-05-13T09:40:26.909Z,22.60
2018-05-13T09:42:54.415Z,23.00
2018-05-13T09:45:21.960Z,23.30
2018-05-13T09:47:49.462Z,23.30
2018-05-13T09:50:16.972Z,23.10
2018-05-13T09:52:44.535Z,23.10
2018-05-13T09:55:12.058Z,23.20
2018-05-13T09:57:40.403Z,23.80
2018-05-13T10:00:08.633Z,23.90
2018-05-13T10:02:36.905Z,23.40
2018-05-13T10:05:05.187Z,23.50
2018-05-13T10:07:33.452Z,23.70
2018-05-13T10:10:01.733Z,23.70
2018-05-13T10:12:29.996Z,24.10
2018-05-13T10:14:57.521Z,24.00
2018-05-13T10:17:25.016Z,24.20
2018-05-13T10:19:53.296Z,24.00
2018-05-13T10:22:21.557Z,24.20
2018-05-13T10:24:49.073Z,24.10
2018-05-13T10:27:16.651Z,24.70
2018-05-13T10:29:44.862Z,25.10
2018-05-13T10:32:13.133Z,25.00
2018-05-13T10:34:40.653Z,25.00
2018-05-13T10:37:08.162Z,25.10
2018-05-13T10:39:36.436Z,25.00
2018-05-13T10:42:04.701Z,24.80
2018-05-13T10:44:32.193Z,24.70
2018-05-13T10:46:59.704Z,25.10
2018-05-13T10:49:27.196Z,25.60
2018-05-13T10:51:55.473Z,25.70
2018-05-13T10:54:22.971Z,25.60
2018-05-13T10:56:50.480Z,25.60
2018-05-13T10:59:18.744Z,25.90
2018-05-13T11:01:47.021Z,25.50
2018-05-13T11:04:14.513Z,25.40
2018-05-13T11:06:42.032Z,24.90
2018-05-13T11:09:10.296Z,25.20
2018-05-13T11:11:37.809Z,25.10
2018-05-13T11:14:05.311Z,24.80
2018-05-13T11:16:32.820Z,24.80
2018-05-13T11:19:00.338Z,24.50
2018-05-13T11:21:27.852Z,24.80
2018-05-13T11:23:55.362Z,24.50
2018-05-13T11:26:23.674Z,24.50
2018-05-13T11:28:51.174Z,24.50
2018-05-13T11:31:18.689Z,24.50
2018-05-13T11:33:46.262Z,24.90
2018-05-13T11:36:14.501Z,24.90
2018-05-13T11:38:42.773Z,25.00
2018-05-13T11:41:11.057Z,24.90
2018-05-13T11:43:39.318Z,25.10
2018-05-13T11:46:07.609Z,25.30
2018-05-13T11:48:35.872Z,25.40
2018-05-13T11:51:04.147Z,25.10
2018-05-13T11:53:32.412Z,24.80
2018-05-13T11:55:59.923Z,24.80
2018-05-13T11:58:27.421Z,24.40
2018-05-13T12:00:54.941Z,24.40
2018-05-13T12:03:22.447Z,25.10
2018-05-13T12:05:50.736Z,24.40
2018-05-13T12:08:18.996Z,24.20
2018-05-13T12:10:46.508Z,24.20
2018-05-13T12:13:14.007Z,24.50
2018-05-13T12:15:41.529Z,24.20
2018-05-13T12:18:09.025Z,24.90
2018-05-13T12:20:36.545Z,24.80
2018-05-13T12:23:04.048Z,24.80
2018-05-13T12:25:31.565Z,24.70
2018-05-13T12:27:59.060Z,24.70
2018-05-13T12:30:26.577Z,24.80
2018-05-13T12:32:54.077Z,24.90
2018-05-13T12:35:21.589Z,25.10
2018-05-13T12:37:49.089Z,25.20
2018-05-13T12:40:16.584Z,25.20
2018-05-13T12:42:44.116Z,25.40
2018-05-13T12:45:11.615Z,25.00
2018-05-13T12:47:39.125Z,24.70
2018-05-13T12:50:06.673Z,24.50
2018-05-13T12:52:34.148Z,24.10
2018-05-13T12:55:01.646Z,24.30
2018-05-13T12:57:29.173Z,24.60
2018-05-13T12:59:56.757Z,24.80
2018-05-13T13:02:24.389Z,25.40
2018-05-13T13:04:51.856Z,25.70
2018-05-13T13:07:20.153Z,25.00
2018-05-13T13:09:47.659Z,25.00
2018-05-13T13:12:15.168Z,24.80
2018-05-13T13:14:42.661Z,24.50
2018-05-13T13:17:10.173Z,24.50
2018-05-13T13:19:37.672Z,24.50
2018-05-13T13:22:05.266Z,24.30
2018-05-13T13:24:32.696Z,24.30
2018-05-13T13:27:00.208Z,24.50
2018-05-13T13:29:27.720Z,24.50
2018-05-13T13:31:55.229Z,24.50
2018-05-13T13:34:22.723Z,24.20
2018-05-13T13:36:50.240Z,23.90
2018-05-13T13:39:17.739Z,23.50
2018-05-13T13:41:45.267Z,23.50
2018-05-13T13:44:12.764Z,23.40
2018-05-13T13:46:40.276Z,23.20
2018-05-13T13:49:07.777Z,23.00
2018-05-13T13:51:35.302Z,23.10
2018-05-13T13:54:02.796Z,23.10
2018-05-13T13:56:30.313Z,23.10
2018-05-13T13:58:57.808Z,23.10
2018-05-13T14:01:25.317Z,23.00
2018-05-13T14:03:53.576Z,23.00
2018-05-13T14:06:21.983Z,23.10
2018-05-13T14:08:49.368Z,23.00
2018-05-13T14:11:16.886Z,23.10
2018-05-13T14:13:44.393Z,23.10
2018-05-13T14:16:11.910Z,23.20
2018-05-13T14:18:39.412Z,23.30
2018-05-13T14:21:06.917Z,23.20
2018-05-13T14:23:35.193Z,22.90
2018-05-13T14:26:02.693Z,22.80
2018-05-13T14:28:30.200Z,22.80
2018-05-13T14:30:58.463Z,22.80
2018-05-13T14:33:25.972Z,22.80
2018-05-13T14:35:53.465Z,22.80
2018-05-13T14:38:20.996Z,22.30
2018-05-13T14:40:48.560Z,21.60
2018-05-13T14:43:16.781Z,20.20
2018-05-13T14:45:45.092Z,19.60
2018-05-13T14:48:12.609Z,19.60
2018-05-13T14:50:40.910Z,18.30
2018-05-13T14:53:08.428Z,18.20
2018-05-13T14:55:35.929Z,17.70
2018-05-13T14:58:03.449Z,17.30
2018-05-13T15:00:30.953Z,17.10
2018-05-13T15:02:58.473Z,16.90
2018-05-13T15:05:25.973Z,16.80
2018-05-13T15:07:53.489Z,16.80
2018-05-13T15:10:21.077Z,16.80
2018-05-13T15:12:48.636Z,16.70
2018-05-13T15:15:16.133Z,16.50
2018-05-13T15:17:43.650Z,16.10
2018-05-13T15:20:11.151Z,15.70
2018-05-13T15:22:38.723Z,15.70
2018-05-13T15:25:06.229Z,15.60
2018-05-13T15:27:33.743Z,15.60
2018-05-13T15:30:01.261Z,15.60
2018-05-13T15:32:28.824Z,15.70
2018-05-13T15:34:56.332Z,15.70
2018-05-13T15:37:23.930Z,15.80
2018-05-13T15:39:51.428Z,15.70
2018-05-13T15:42:18.974Z,15.70
2018-05-13T15:44:46.468Z,15.80
2018-05-13T15:47:13.979Z,15.80
2018-05-13T15:49:41.474Z,15.90
2018-05-13T15:52:09.078Z,16.00
2018-05-13T15:54:36.636Z,16.10
2018-05-13T15:57:04.149Z,16.20
2018-05-13T15:59:31.653Z,16.20
2018-05-13T16:01:59.164Z,16.60
2018-05-13T16:04:26.665Z,16.60
2018-05-13T16:06:54.159Z,16.70
2018-05-13T16:09:21.668Z,16.60
2018-05-13T16:11:49.937Z,16.70
2018-05-13T16:14:18.216Z,16.90
2018-05-13T16:16:46.510Z,16.90
2018-05-13T16:19:14.025Z,16.90
2018-05-13T16:21:43.033Z,16.90
2018-05-13T16:24:11.335Z,17.00
2018-05-13T16:26:38.834Z,17.00
2018-05-13T16:29:06.373Z,17.10
2018-05-13T16:31:33.910Z,17.20
2018-05-13T16:34:01.573Z,17.20
2018-05-13T16:36:29.075Z,17.30
2018-05-13T16:38:56.598Z,17.30
2018-05-13T16:41:24.098Z,17.30
2018-05-13T16:43:51.613Z,17.40
2018-05-13T16:46:19.177Z,17.30
2018-05-13T16:48:46.646Z,17.40
2018-05-13T16:51:14.140Z,17.40
2018-05-13T16:53:41.673Z,17.40
2018-05-13T16:56:09.171Z,17.50
2018-05-13T16:58:37.452Z,17.70
2018-05-13T17:01:05.712Z,18.00
2018-05-13T17:03:33.310Z,18.00
2018-05-13T17:06:00.866Z,18.40
2018-05-13T17:08:28.421Z,18.50
2018-05-13T17:10:55.921Z,18.40
2018-05-13T17:13:23.433Z,18.40
2018-05-13T17:15:50.941Z,18.40
2018-05-13T17:18:18.457Z,18.40
2018-05-13T17:20:45.953Z,18.40
2018-05-13T17:23:13.545Z,18.40
2018-05-13T17:25:40.989Z,18.70
2018-05-13T17:28:08.507Z,18.80
2018-05-13T17:30:36.004Z,18.80
2018-05-13T17:33:04.293Z,18.40
2018-05-13T17:35:31.791Z,18.40
2018-05-13T17:37:59.344Z,18.30
2018-05-13T17:40:26.840Z,18.40
2018-05-13T17:42:54.352Z,18.50
2018-05-13T17:45:21.848Z,18.50
2018-05-13T17:47:49.451Z,18.30
2018-05-13T17:50:16.881Z,18.00
2018-05-13T17:52:44.413Z,17.50
2018-05-13T17:55:11.917Z,17.50
2018-05-13T17:57:39.563Z,17.60
2018-05-13T18:00:07.044Z,17.40
2018-05-13T18:02:35.312Z,17.20
2018-05-13T18:05:03.605Z,17.00
2018-05-13T18:07:31.873Z,16.90
2018-05-13T18:10:00.164Z,16.70
2018-05-13T18:12:27.668Z,16.70
2018-05-13T18:14:55.185Z,16.70
2018-05-13T18:17:22.688Z,16.70
2018-05-13T18:19:50.200Z,16.70
2018-05-13T18:22:17.716Z,16.60
2018-05-13T18:24:45.262Z,16.50
2018-05-13T18:27:12.764Z,16.40
2018-05-13T18:29:41.055Z,16.20
2018-05-13T18:32:09.145Z,16.20
2018-05-13T18:34:36.697Z,16.10
2018-05-13T18:37:04.207Z,16.10
2018-05-13T18:39:31.732Z,16.00
2018-05-13T18:41:59.498Z,15.90
2018-05-13T18:44:27.085Z,15.80
2018-05-13T18:46:54.551Z,15.80
2018-05-13T18:49:22.083Z,15.70
2018-05-13T18:51:49.634Z,15.70
2018-05-13T18:54:17.157Z,15.60
2018-05-13T18:56:44.722Z,15.50
2018-05-13T18:59:12.282Z,15.50
2018-05-13T19:01:39.791Z,15.40
2018-05-13T19:04:07.313Z,15.40
2018-05-13T19:06:34.910Z,15.40
2018-05-13T19:09:03.117Z,15.40
2018-05-13T19:11:31.391Z,15.40
2018-05-13T19:13:59.679Z,15.30
2018-05-13T19:16:27.194Z,15.30
2018-05-13T19:18:54.719Z,15.20
2018-05-13T19:21:22.220Z,15.20
2018-05-13T19:23:49.732Z,15.00
2018-05-13T19:26:17.237Z,14.90
2018-05-13T19:28:45.584Z,14.80
2018-05-13T19:31:13.128Z,14.80
2018-05-13T19:33:40.649Z,14.70
2018-05-13T19:36:08.917Z,14.60
2018-05-13T19:38:37.203Z,14.50
2018-05-13T19:41:05.472Z,14.50
2018-05-13T19:43:33.761Z,14.50
2018-05-13T19:46:02.028Z,14.50
2018-05-13T19:48:30.323Z,14.40
2018-05-13T19:50:57.822Z,14.40
2018-05-13T19:53:25.349Z,14.40
2018-05-13T19:55:52.852Z,14.40
2018-05-13T19:58:21.120Z,14.30
2018-05-13T20:00:48.638Z,14.20
2018-05-13T20:03:16.215Z,14.20
2018-05-13T20:05:45.177Z,14.20
2018-05-13T20:08:13.461Z,14.20
2018-05-13T20:10:40.990Z,14.20
2018-05-13T20:13:09.256Z,14.10
2018-05-13T20:15:36.847Z,14.10
2018-05-13T20:18:04.296Z,14.10
2018-05-13T20:20:32.573Z,14.00
2018-05-13T20:23:12.676Z,14.00
2018-05-13T20:25:40.200Z,13.90
2018-05-13T20:28:07.706Z,13.90
2018-05-13T20:30:35.262Z,13.90
2018-05-13T20:33:02.740Z,13.80
2018-05-13T20:35:30.261Z,13.70
2018-05-13T20:37:57.764Z,13.80
2018-05-13T20:40:26.052Z,13.80
2018-05-13T20:42:54.320Z,13.70
2018-05-13T20:45:22.602Z,13.80
2018-05-13T20:47:50.864Z,13.70
2018-05-13T20:50:18.385Z,13.60
2018-05-13T20:52:45.889Z,13.70
2018-05-13T20:55:14.173Z,13.70
2018-05-13T20:57:42.466Z,13.70
2018-05-13T21:00:10.741Z,13.80
2018-05-13T21:02:38.249Z,13.80
2018-05-13T21:05:05.768Z,13.80
2018-05-13T21:07:33.272Z,13.80
2018-05-13T21:10:00.792Z,13.80
2018-05-13T21:12:28.289Z,13.80
2018-05-13T21:14:55.800Z,13.90
2018-05-13T21:17:23.308Z,13.90
2018-05-13T21:19:50.820Z,13.80
2018-05-13T21:22:18.318Z,13.80
2018-05-13T21:24:45.850Z,13.80
2018-05-13T21:27:13.360Z,13.90
2018-05-13T21:29:41.645Z,13.80
2018-05-13T21:32:09.981Z,13.70
2018-05-13T21:34:37.440Z,13.70
2018-05-13T21:37:04.941Z,13.70
2018-05-13T21:39:32.464Z,13.70
2018-05-13T21:42:00.067Z,13.80
2018-05-13T21:44:27.580Z,13.70
2018-05-13T21:46:55.076Z,13.70
2018-05-13T21:49:22.637Z,13.70
2018-05-13T21:51:50.133Z,13.60
2018-05-13T21:54:17.648Z,13.60
2018-05-13T21:56:45.156Z,13.60
2018-05-13T21:59:12.660Z,13.50
2018-05-13T22:01:40.944Z,13.50
2018-05-13T22:04:08.444Z,13.50
2018-05-13T22:06:35.965Z,13.50
2018-05-13T22:09:03.473Z,13.40
2018-05-13T22:11:30.993Z,13.40
2018-05-13T22:13:58.496Z,13.40
2018-05-13T22:16:26.015Z,13.40
2018-05-13T22:18:53.514Z,13.40
2018-05-13T22:21:21.800Z,13.20
2018-05-13T22:23:49.296Z,13.20
2018-05-13T22:26:16.820Z,13.10
2018-05-13T22:28:45.094Z,13.10
2018-05-13T22:31:13.385Z,13.10
2018-05-13T22:33:41.657Z,13.00
2018-05-13T22:36:09.957Z,13.00
2018-05-13T22:38:37.456Z,13.00
2018-05-13T22:41:04.977Z,12.90
2018-05-13T22:43:32.525Z,12.90
2018-05-13T22:46:00.053Z,12.90
2018-05-13T22:48:27.557Z,12.90
2018-05-13T22:50:55.089Z,13.00
2018-05-13T22:53:23.357Z,13.00
2018-05-13T22:55:51.644Z,12.90
2018-05-13T22:58:19.240Z,12.90
2018-05-13T23:00:48.193Z,12.80
2018-05-13T23:03:16.456Z,12.70
2018-05-13T23:05:44.744Z,12.60
2018-05-13T23:08:13.016Z,12.60
2018-05-13T23:10:41.296Z,12.60
2018-05-13T23:13:09.557Z,12.50
2018-05-13T23:15:37.840Z,12.50
2018-05-13T23:18:06.172Z,12.50
2018-05-13T23:20:34.412Z,12.50
2018-05-13T23:23:01.919Z,12.50
2018-05-13T23:25:29.530Z,12.50
2018-05-13T23:27:57.093Z,12.50
2018-05-13T23:30:24.618Z,12.60
2018-05-13T23:32:52.233Z,12.60
2018-05-13T23:35:19.753Z,12.70
2018-05-13T23:37:48.018Z,12.60
2018-05-13T23:40:16.305Z,12.60
2018-05-13T23:42:44.601Z,12.50
2018-05-13T23:45:12.120Z,12.50
2018-05-13T23:47:39.629Z,12.60
2018-05-13T23:50:07.144Z,12.60
2018-05-13T23:52:35.424Z,12.60
2018-05-13T23:55:03.683Z,12.50
2018-05-13T23:57:31.196Z,12.50
2018-05-13T23:59:58.692Z,12.50
